Time;durP1;ratioP1;P1;durP2;ratioP2;P2;SDS_P1;SDS_P2;PMS_P1;PMS_P2;Temp;Humidity;BMP_temperature;BMP_pressure;BME280_temperature;BME280_humidity;BME280_pressure;Samples;Min_cycle;Max_cycle;Signal;HPM_P1;HPM_P2
2023/01/24 00:00:31;;;;;;;35.58;13.63;;;1.40;99.90;;;;;;5081683;28;20412;-63
2023/01/24 00:02:57;;;;;;;32.38;13.90;;;1.30;99.90;;;;;;5104321;28;20024;-62
2023/01/24 00:05:22;;;;;;;39.08;13.52;;;1.30;99.90;;;;;;5091169;28;20040;-63
2023/01/24 00:07:48;;;;;;;36.38;13.85;;;1.30;99.90;;;;;;5108481;28;20024;-63
2023/01/24 00:10:13;;;;;;;33.63;14.27;;;1.30;99.90;;;;;;5087873;28;20031;-63
2023/01/24 00:12:38;;;;;;;29.75;13.35;;;1.30;99.90;;;;;;5089060;28;20047;-62
2023/01/24 00:15:05;;;;;;;38.90;14.07;;;1.30;99.90;;;;;;5101622;28;20407;-63
2023/01/24 00:17:30;;;;;;;33.42;14.30;;;1.30;99.90;;;;;;5089034;28;20032;-63
2023/01/24 00:19:56;;;;;;;40.78;15.82;;;1.30;99.90;;;;;;5102654;28;20593;-63
2023/01/24 00:22:21;;;;;;;44.03;15.98;;;1.20;99.90;;;;;;5088999;28;20633;-63
2023/01/24 00:24:48;;;;;;;32.78;14.45;;;1.20;99.90;;;;;;5103872;28;20025;-63
2023/01/24 00:27:15;;;;;;;39.03;15.43;;;1.10;99.90;;;;;;5089193;28;20553;-63
2023/01/24 00:29:40;;;;;;;34.58;14.88;;;1.20;99.90;;;;;;5104873;28;20032;-62
2023/01/24 00:32:06;;;;;;;38.60;15.88;;;1.10;99.90;;;;;;5085480;28;20094;-63
2023/01/24 00:34:31;;;;;;;43.00;16.13;;;1.10;99.90;;;;;;5105838;28;20034;-63
2023/01/24 00:36:56;;;;;;;38.85;15.75;;;1.10;99.90;;;;;;5088920;28;20100;-63
2023/01/24 00:39:22;;;;;;;35.53;16.33;;;1.00;99.90;;;;;;5111246;28;20369;-63
2023/01/24 00:41:47;;;;;;;39.47;15.70;;;1.00;99.90;;;;;;5091432;28;20062;-63
2023/01/24 00:44:13;;;;;;;45.58;17.65;;;1.00;99.90;;;;;;5112577;28;20119;-63
2023/01/24 00:46:39;;;;;;;43.15;16.05;;;1.00;99.90;;;;;;5091425;28;20028;-63
2023/01/24 00:49:04;;;;;;;40.03;15.15;;;0.90;99.90;;;;;;5112469;28;20028;-63
2023/01/24 00:51:30;;;;;;;41.38;16.00;;;0.90;99.90;;;;;;5091216;28;20036;-63
2023/01/24 00:53:55;;;;;;;37.67;14.90;;;0.90;99.90;;;;;;5112225;28;20115;-63
2023/01/24 00:56:21;;;;;;;43.20;16.25;;;1.00;99.90;;;;;;5091361;28;20035;-63
2023/01/24 00:58:46;;;;;;;41.47;15.68;;;0.90;99.90;;;;;;5112188;28;20032;-63
2023/01/24 01:01:12;;;;;;;33.35;15.00;;;1.00;99.90;;;;;;5091336;28;20036;-63
2023/01/24 01:03:37;;;;;;;36.35;14.52;;;1.00;99.90;;;;;;5112010;28;20039;-63
2023/01/24 01:06:06;;;;;;;39.92;15.88;;;1.00;99.90;;;;;;5091164;28;20047;-63
2023/01/24 01:08:32;;;;;;;37.63;15.30;;;1.00;99.90;;;;;;5112278;28;20034;-62
2023/01/24 01:10:58;;;;;;;43.63;16.38;;;1.00;99.90;;;;;;5090856;28;20043;-62
2023/01/24 01:13:25;;;;;;;35.50;15.30;;;1.00;99.90;;;;;;5112132;28;20069;-62
2023/01/24 01:15:50;;;;;;;43.53;15.18;;;1.00;99.90;;;;;;5090724;28;20036;-63
2023/01/24 01:18:16;;;;;;;40.72;16.20;;;1.00;99.90;;;;;;5111615;28;20042;-63
2023/01/24 01:20:48;;;;;;;39.95;15.63;;;1.00;99.90;;;;;;5101000;28;20484;-63
2023/01/24 01:23:13;;;;;;;38.85;13.75;;;0.90;99.90;;;;;;5071571;28;20101;-63
2023/01/24 01:25:38;;;;;;;42.20;16.10;;;0.90;99.90;;;;;;5108993;28;20036;-63
2023/01/24 01:28:04;;;;;;;43.85;17.77;;;1.00;99.90;;;;;;5092172;28;20040;-63
2023/01/24 01:30:29;;;;;;;49.40;17.45;;;0.90;99.90;;;;;;5102942;28;20062;-63
2023/01/24 01:32:55;;;;;;;39.28;17.23;;;0.90;99.90;;;;;;5092072;28;20156;-63
2023/01/24 01:35:20;;;;;;;45.10;17.17;;;0.90;99.90;;;;;;5109393;28;20035;-62
2023/01/24 01:37:46;;;;;;;52.33;18.88;;;0.90;99.90;;;;;;5111955;28;20027;-62
2023/01/24 01:40:11;;;;;;;47.92;18.77;;;0.80;99.90;;;;;;5096521;28;20468;-67
2023/01/24 01:42:48;;;;;;;51.50;18.55;;;0.80;99.90;;;;;;5112083;28;20028;-68
2023/01/24 01:45:36;;;;;;;57.40;19.38;;;0.80;99.90;;;;;;5083060;28;20050;-67
2023/01/24 01:48:12;;;;;;;48.25;19.17;;;0.70;99.90;;;;;;5082204;28;20055;-67
2023/01/24 01:50:43;;;;;;;58.38;19.80;;;0.70;99.90;;;;;;5088209;28;20031;-67
2023/01/24 01:53:09;;;;;;;56.78;18.67;;;0.70;99.90;;;;;;5069833;28;20444;-67
2023/01/24 01:55:40;;;;;;;47.55;16.92;;;0.70;99.90;;;;;;5108583;28;20070;-68
2023/01/24 01:58:07;;;;;;;52.58;17.98;;;0.80;99.90;;;;;;5071008;28;20044;-68
2023/01/24 02:00:33;;;;;;;46.25;17.73;;;0.80;99.90;;;;;;5108626;28;20078;-68
2023/01/24 02:05:51;;;;;;;54.22;18.60;;;0.80;99.90;;;;;;5093404;28;20074;-68
2023/01/24 02:08:21;;;;;;;47.13;17.58;;;0.80;99.90;;;;;;5091465;28;20481;-68
2023/01/24 02:13:34;;;;;;;34.92;14.65;;;0.80;99.90;;;;;;5070969;28;20086;-68
2023/01/24 02:16:03;;;;;;;50.30;18.48;;;0.80;99.90;;;;;;5095555;28;20557;-68
2023/01/24 02:18:34;;;;;;;47.42;18.70;;;0.80;99.90;;;;;;5110728;28;20491;-68
2023/01/24 02:20:59;;;;;;;50.13;16.75;;;0.80;99.90;;;;;;5088956;28;20533;-68
2023/01/24 02:23:46;;;;;;;51.35;16.58;;;0.70;99.90;;;;;;5110601;28;20031;-68
2023/01/24 02:26:26;;;;;;;48.92;17.42;;;0.80;99.90;;;;;;5083605;28;20024;-68
2023/01/24 02:29:07;;;;;;;45.35;16.33;;;0.80;99.90;;;;;;5070378;28;20033;-69
2023/01/24 02:31:52;;;;;;;49.17;18.85;;;0.80;99.90;;;;;;5082081;28;20048;-68
2023/01/24 02:34:18;;;;;;;39.72;14.95;;;0.70;99.90;;;;;;5110180;28;20380;-68
2023/01/24 02:36:44;;;;;;;48.60;16.48;;;0.70;99.90;;;;;;5089079;28;20043;-68
2023/01/24 02:39:18;;;;;;;56.72;19.02;;;0.70;99.90;;;;;;5109926;28;20183;-69
2023/01/24 02:41:51;;;;;;;55.80;19.27;;;0.70;99.90;;;;;;5087447;28;20039;-69
2023/01/24 02:44:32;;;;;;;48.80;18.60;;;0.70;99.90;;;;;;5069968;28;20068;-69
2023/01/24 02:46:58;;;;;;;64.90;19.63;;;0.60;99.90;;;;;;5070284;28;20078;-69
2023/01/24 02:49:23;;;;;;;57.75;20.08;;;0.70;99.90;;;;;;5109025;28;20085;-69
2023/01/24 02:54:33;;;;;;;48.25;17.88;;;0.70;99.90;;;;;;5070253;28;20058;-68
2023/01/24 02:59:42;;;;;;;52.95;18.80;;;0.80;99.90;;;;;;5072887;28;20038;-69
2023/01/24 03:02:08;;;;;;;44.00;16.92;;;0.70;99.90;;;;;;5109947;28;20115;-68
2023/01/24 03:04:33;;;;;;;54.85;19.88;;;0.70;99.90;;;;;;5089632;28;20452;-69
2023/01/24 03:06:59;;;;;;;51.92;20.17;;;0.70;99.90;;;;;;5108860;28;20024;-68
2023/01/24 03:09:38;;;;;;;48.65;18.35;;;0.60;99.90;;;;;;5090248;28;20541;-68
2023/01/24 03:36:43;;;;;;;41.92;15.10;;;0.60;99.90;;;;;;5067315;28;20119;-68
2023/01/24 03:41:54;;;;;;;34.80;13.27;;;0.70;99.90;;;;;;5109972;28;20034;-68
2023/01/24 03:44:19;;;;;;;44.30;15.13;;;0.70;99.90;;;;;;5109488;28;20031;-68
2023/01/24 03:46:45;;;;;;;35.97;13.80;;;0.70;99.90;;;;;;5109776;28;20415;-68
2023/01/24 03:49:10;;;;;;;42.58;14.82;;;0.80;99.90;;;;;;5109399;28;20027;-69
2023/01/24 03:54:20;;;;;;;41.80;15.75;;;0.80;99.90;;;;;;5109619;28;20390;-63
2023/01/24 03:56:45;;;;;;;47.92;16.73;;;0.70;99.90;;;;;;5109309;28;20028;-62
2023/01/24 03:59:11;;;;;;;40.20;15.02;;;0.70;99.90;;;;;;5109305;28;20063;-62
2023/01/24 04:01:36;;;;;;;46.33;16.73;;;0.80;99.90;;;;;;5108439;28;20023;-63
2023/01/24 04:04:02;;;;;;;43.97;15.68;;;0.80;99.90;;;;;;5107309;28;20044;-62
2023/01/24 04:06:27;;;;;;;47.42;16.35;;;0.80;99.90;;;;;;5088190;28;20028;-62
2023/01/24 04:08:53;;;;;;;39.40;13.68;;;0.80;99.90;;;;;;5085426;28;20052;-62
2023/01/24 04:11:18;;;;;;;40.42;16.35;;;0.80;99.90;;;;;;5108157;28;20088;-62
2023/01/24 04:13:44;;;;;;;36.75;15.20;;;0.80;99.90;;;;;;5089192;28;20039;-62
2023/01/24 04:16:10;;;;;;;46.15;16.48;;;0.80;99.90;;;;;;5112819;28;20035;-62
2023/01/24 04:18:38;;;;;;;35.75;15.20;;;0.80;99.90;;;;;;5091715;28;20054;-63
2023/01/24 04:21:05;;;;;;;39.78;15.15;;;0.80;99.90;;;;;;5112954;28;20380;-62
2023/01/24 04:23:31;;;;;;;51.75;17.25;;;0.80;99.90;;;;;;5091723;28;20081;-62
2023/01/24 04:25:59;;;;;;;40.05;14.15;;;0.80;99.90;;;;;;5112427;28;20251;-63
2023/01/24 04:28:25;;;;;;;39.42;14.90;;;0.80;99.90;;;;;;5091356;28;20036;-63
2023/01/24 04:30:59;;;;;;;42.10;15.45;;;0.80;99.90;;;;;;5104050;28;20040;-63
2023/01/24 04:33:25;;;;;;;44.63;16.05;;;0.80;99.90;;;;;;5096449;28;20032;-62
2023/01/24 04:35:51;;;;;;;39.60;15.32;;;0.80;99.90;;;;;;5112286;28;20035;-62
2023/01/24 04:38:16;;;;;;;38.00;15.68;;;0.80;99.90;;;;;;5091415;28;20032;-63
2023/01/24 04:40:42;;;;;;;44.97;16.13;;;0.80;99.90;;;;;;5112183;28;20019;-63
2023/01/24 04:43:07;;;;;;;46.75;15.43;;;0.70;99.90;;;;;;5091569;28;20111;-62
2023/01/24 04:45:33;;;;;;;43.47;15.32;;;0.80;99.90;;;;;;5112197;28;20035;-62
2023/01/24 04:47:58;;;;;;;45.20;16.40;;;0.80;99.90;;;;;;5091249;28;20042;-62
2023/01/24 04:50:24;;;;;;;41.58;14.90;;;0.80;99.90;;;;;;5112109;28;20074;-62
2023/01/24 04:52:49;;;;;;;47.85;16.85;;;0.80;99.90;;;;;;5100902;28;20089;-62
2023/01/24 04:55:15;;;;;;;41.55;14.80;;;0.80;99.90;;;;;;5092927;28;20062;-62
2023/01/24 04:57:41;;;;;;;46.50;16.05;;;0.80;99.90;;;;;;5100228;28;20029;-62
2023/01/24 05:00:10;;;;;;;43.92;15.32;;;0.80;99.90;;;;;;5092564;28;20464;-63
2023/01/24 05:02:37;;;;;;;48.20;16.50;;;0.80;99.90;;;;;;5102740;28;20426;-62
2023/01/24 05:05:03;;;;;;;44.15;16.25;;;0.80;99.90;;;;;;5112196;28;20082;-62
2023/01/24 05:07:28;;;;;;;43.78;15.77;;;0.70;99.90;;;;;;5090783;28;20028;-62
2023/01/24 05:09:54;;;;;;;38.17;15.10;;;0.70;99.90;;;;;;5092305;28;20085;-62
2023/01/24 05:12:19;;;;;;;40.63;15.40;;;0.70;99.90;;;;;;5104159;28;20127;-62
2023/01/24 05:14:45;;;;;;;37.33;15.02;;;0.80;99.90;;;;;;5092272;28;20023;-62
2023/01/24 05:17:11;;;;;;;36.15;14.40;;;0.80;99.90;;;;;;5105396;28;20032;-62
2023/01/24 05:19:37;;;;;;;41.50;14.57;;;0.80;99.90;;;;;;5091999;28;20012;-61
2023/01/24 05:22:02;;;;;;;36.97;13.43;;;0.90;99.90;;;;;;5106304;28;20388;-62
2023/01/24 05:24:28;;;;;;;32.03;12.13;;;0.90;99.90;;;;;;5090879;28;20028;-62
2023/01/24 05:26:54;;;;;;;43.33;14.55;;;0.90;99.90;;;;;;5107515;28;20050;-62
2023/01/24 05:29:20;;;;;;;38.35;15.88;;;1.00;99.90;;;;;;5092082;28;20020;-62
2023/01/24 05:31:45;;;;;;;39.17;16.60;;;0.90;99.90;;;;;;5107965;28;20056;-62
2023/01/24 05:34:11;;;;;;;39.08;15.02;;;0.90;99.90;;;;;;5091929;28;20058;-63
2023/01/24 05:36:36;;;;;;;32.42;13.65;;;0.90;99.90;;;;;;5111460;28;20478;-62
2023/01/24 05:39:03;;;;;;;38.92;14.27;;;0.90;99.90;;;;;;5090130;28;20578;-62
2023/01/24 05:41:28;;;;;;;41.70;15.45;;;0.90;99.90;;;;;;5111609;28;20031;-63
2023/01/24 05:43:54;;;;;;;40.47;16.52;;;0.90;99.90;;;;;;5090130;28;20032;-63
2023/01/24 05:46:21;;;;;;;40.70;15.73;;;0.90;99.90;;;;;;5111377;28;20027;-62
2023/01/24 05:48:48;;;;;;;44.30;17.33;;;0.90;99.90;;;;;;5090048;28;20059;-62
2023/01/24 05:51:16;;;;;;;35.08;14.52;;;0.80;99.90;;;;;;5089428;28;20085;-62
2023/01/24 05:53:43;;;;;;;37.28;14.00;;;0.80;99.90;;;;;;5089753;28;20074;-62
2023/01/24 05:56:14;;;;;;;44.28;16.02;;;0.90;99.90;;;;;;5111210;28;20024;-62
2023/01/24 05:58:41;;;;;;;40.67;16.38;;;0.90;99.90;;;;;;5089751;28;20530;-63
2023/01/24 06:01:16;;;;;;;43.80;16.45;;;0.90;99.90;;;;;;5111103;28;20039;-63
2023/01/24 06:03:43;;;;;;;33.33;13.10;;;0.90;99.90;;;;;;5086620;28;20687;-63
2023/01/24 06:06:10;;;;;;;43.03;15.73;;;0.90;99.90;;;;;;5111014;28;20265;-62
2023/01/24 06:08:36;;;;;;;38.50;16.77;;;0.80;99.90;;;;;;5086601;28;20055;-62
2023/01/24 06:11:06;;;;;;;39.92;16.67;;;0.80;99.90;;;;;;5110763;28;20395;-62
2023/01/24 06:13:32;;;;;;;38.45;17.02;;;0.80;99.90;;;;;;5083833;28;20028;-62
2023/01/24 06:16:03;;;;;;;44.08;16.67;;;0.80;99.90;;;;;;5110600;28;20498;-62
2023/01/24 06:18:28;;;;;;;43.17;17.10;;;0.80;99.90;;;;;;5089235;28;20030;-62
2023/01/24 06:20:55;;;;;;;46.05;17.58;;;0.80;99.90;;;;;;5110320;28;20031;-62
2023/01/24 06:23:26;;;;;;;46.15;18.00;;;0.80;99.90;;;;;;5085364;28;20514;-63
2023/01/24 06:25:52;;;;;;;48.97;19.38;;;0.80;99.90;;;;;;5087315;28;20024;-63
2023/01/24 06:28:18;;;;;;;43.97;18.77;;;0.80;99.90;;;;;;5087150;28;20465;-63
2023/01/24 06:30:50;;;;;;;39.35;15.10;;;0.70;99.90;;;;;;5101603;28;20031;-63
2023/01/24 06:33:48;;;;;;;33.05;14.18;;;0.80;99.90;;;;;;5071450;28;20458;-63
2023/01/24 06:36:44;;;;;;;41.55;16.38;;;0.80;99.90;;;;;;5066756;28;20025;-64
2023/01/24 06:39:14;;;;;;;55.90;18.30;;;0.80;99.90;;;;;;5109488;28;20042;-63
2023/01/24 06:41:40;;;;;;;44.28;17.75;;;0.80;99.90;;;;;;5091252;28;20293;-63
2023/01/24 06:44:07;;;;;;;45.58;17.98;;;0.80;99.90;;;;;;5109781;28;20078;-64
2023/01/24 06:46:33;;;;;;;36.35;16.30;;;0.80;99.90;;;;;;5090289;28;20108;-63
2023/01/24 06:48:58;;;;;;;43.50;17.15;;;0.90;99.90;;;;;;5108080;28;20103;-63
2023/01/24 06:51:24;;;;;;;53.53;18.17;;;0.90;99.90;;;;;;5088796;28;20040;-63
2023/01/24 06:53:49;;;;;;;47.50;18.38;;;0.90;99.90;;;;;;5107115;28;20103;-63
2023/01/24 06:56:14;;;;;;;44.38;17.77;;;0.80;99.90;;;;;;5088010;28;20031;-64
2023/01/24 06:58:40;;;;;;;45.63;18.92;;;0.80;99.90;;;;;;5110346;28;20452;-61
2023/01/24 07:01:05;;;;;;;45.08;17.52;;;0.80;99.90;;;;;;5090517;28;20024;-61
2023/01/24 07:03:31;;;;;;;40.75;17.45;;;0.80;99.90;;;;;;5071534;28;20408;-61
2023/01/24 07:05:56;;;;;;;48.97;18.20;;;0.80;99.90;;;;;;5108946;28;20058;-61
2023/01/24 07:08:22;;;;;;;49.83;18.48;;;0.90;99.90;;;;;;5081951;28;20059;-61
2023/01/24 07:10:48;;;;;;;41.28;16.25;;;0.80;99.90;;;;;;5109502;28;20034;-61
2023/01/24 07:13:13;;;;;;;47.70;16.58;;;0.90;99.90;;;;;;5088475;28;20032;-61
2023/01/24 07:15:39;;;;;;;48.60;18.63;;;0.90;99.90;;;;;;5109536;28;20027;-61
2023/01/24 07:18:06;;;;;;;42.60;18.45;;;0.80;99.90;;;;;;5088566;28;20036;-61
2023/01/24 07:20:32;;;;;;;50.50;19.55;;;0.80;99.90;;;;;;5109485;28;20396;-61
2023/01/24 07:22:57;;;;;;;49.45;17.55;;;0.80;99.90;;;;;;5098518;28;20032;-61
2023/01/24 07:25:23;;;;;;;51.08;18.00;;;0.80;99.90;;;;;;5090247;28;20502;-61
2023/01/24 07:27:49;;;;;;;44.90;19.20;;;0.80;99.90;;;;;;5107277;28;20503;-61
2023/01/24 07:30:15;;;;;;;48.55;19.17;;;0.80;99.90;;;;;;5092928;28;20187;-61
2023/01/24 07:32:40;;;;;;;56.30;20.02;;;0.80;99.90;;;;;;5107895;28;20473;-61
2023/01/24 07:35:07;;;;;;;54.78;20.25;;;0.90;99.90;;;;;;5089866;28;20388;-62
2023/01/24 07:37:32;;;;;;;47.13;18.88;;;0.90;99.90;;;;;;5107310;28;20023;-61
2023/01/24 07:39:58;;;;;;;48.70;18.33;;;0.90;99.90;;;;;;5109755;28;20031;-61
2023/01/24 07:42:24;;;;;;;47.88;18.38;;;0.90;99.90;;;;;;5093566;28;20024;-61
2023/01/24 07:44:49;;;;;;;39.63;16.10;;;0.90;99.90;;;;;;5109765;28;20027;-61
2023/01/24 07:47:15;;;;;;;42.95;17.55;;;1.00;99.90;;;;;;5091705;28;20138;-61
2023/01/24 07:49:40;;;;;;;41.08;17.23;;;1.10;99.90;;;;;;5109294;28;20034;-61
2023/01/24 07:52:06;;;;;;;40.72;15.75;;;1.00;99.90;;;;;;5090913;28;20396;-61
2023/01/24 07:54:31;;;;;;;40.03;14.77;;;1.10;99.90;;;;;;5109694;28;20027;-61
2023/01/24 07:56:57;;;;;;;46.88;17.70;;;1.10;99.90;;;;;;5089422;28;20115;-62
2023/01/24 07:59:22;;;;;;;39.15;16.20;;;1.10;99.90;;;;;;5109575;28;20100;-62
2023/01/24 08:01:48;;;;;;;37.03;15.20;;;1.20;99.90;;;;;;5088157;28;20040;-61
2023/01/24 08:04:13;;;;;;;49.15;19.38;;;1.20;99.90;;;;;;5109485;28;20024;-62
2023/01/24 08:07:16;;;;;;;44.20;18.63;;;1.10;99.90;;;;;;5089654;28;20066;-61
2023/01/24 08:09:24;;;;;;;42.65;17.90;;;1.10;99.90;;;;;;5062500;28;20040;-61
2023/01/24 08:11:50;;;;;;;47.83;18.60;;;1.10;99.90;;;;;;5105918;28;20039;-61
2023/01/24 08:14:15;;;;;;;42.25;18.73;;;1.00;99.90;;;;;;5109553;28;20051;-61
2023/01/24 08:16:41;;;;;;;54.92;20.15;;;1.10;99.90;;;;;;5089705;28;20115;-54
2023/01/24 08:19:06;;;;;;;48.30;20.00;;;1.00;99.90;;;;;;5106814;28;20038;-52
2023/01/24 08:21:32;;;;;;;56.22;21.55;;;1.00;99.90;;;;;;5089579;28;20586;-54
2023/01/24 08:23:57;;;;;;;48.28;19.42;;;1.00;99.90;;;;;;5088044;28;20028;-53
2023/01/24 08:26:22;;;;;;;50.60;19.35;;;1.00;99.90;;;;;;5108604;28;20023;-51
2023/01/24 08:28:48;;;;;;;42.05;19.27;;;1.00;99.90;;;;;;5087682;28;20060;-54
2023/01/24 08:31:13;;;;;;;49.33;18.55;;;1.00;99.90;;;;;;5108219;28;20052;-50
2023/01/24 08:33:40;;;;;;;43.33;18.83;;;1.10;99.90;;;;;;5087665;28;20115;-54
2023/01/24 08:36:06;;;;;;;45.08;20.15;;;1.10;99.90;;;;;;5108422;28;20065;-51
2023/01/24 08:38:31;;;;;;;44.50;19.50;;;1.10;99.90;;;;;;5087613;28;20449;-53
2023/01/24 08:40:57;;;;;;;48.63;19.85;;;1.10;99.90;;;;;;5108412;28;20035;-56
2023/01/24 08:43:22;;;;;;;37.13;18.23;;;1.10;99.90;;;;;;5087426;28;20034;-53
2023/01/24 08:45:48;;;;;;;43.63;18.63;;;1.10;99.90;;;;;;5107058;28;20027;-54
2023/01/24 08:48:13;;;;;;;41.85;18.30;;;1.10;99.90;;;;;;5087512;28;20032;-56
2023/01/24 08:50:39;;;;;;;42.42;18.40;;;1.10;99.90;;;;;;5106867;28;20557;-56
2023/01/24 08:53:04;;;;;;;45.47;18.88;;;1.10;99.90;;;;;;5087297;28;20048;-52
2023/01/24 08:55:30;;;;;;;43.67;19.15;;;1.10;99.90;;;;;;5108214;28;20152;-51
2023/01/24 08:58:03;;;;;;;36.53;16.90;;;1.10;99.90;;;;;;5097205;28;20487;-53
2023/01/24 09:00:29;;;;;;;37.40;17.52;;;1.10;99.90;;;;;;5091681;28;20767;-53
2023/01/24 09:02:58;;;;;;;41.25;17.27;;;1.20;99.90;;;;;;5108829;28;20419;-55
2023/01/24 09:05:24;;;;;;;37.75;16.67;;;1.20;99.90;;;;;;5092453;28;20047;-50
2023/01/24 09:07:49;;;;;;;46.33;19.67;;;1.20;99.90;;;;;;5103060;28;20377;-52
2023/01/24 09:10:15;;;;;;;37.17;17.40;;;1.30;99.90;;;;;;5092832;28;20036;-55
2023/01/24 09:12:40;;;;;;;37.92;18.83;;;1.40;99.90;;;;;;5109836;28;20028;-52
2023/01/24 09:15:07;;;;;;;39.00;16.95;;;1.40;99.90;;;;;;5092564;28;20036;-53
2023/01/24 09:17:34;;;;;;;39.28;16.35;;;1.50;99.90;;;;;;5109989;28;20031;-50
2023/01/24 09:19:59;;;;;;;36.42;16.27;;;1.50;99.90;;;;;;5112398;28;20483;-56
2023/01/24 09:22:26;;;;;;;40.50;16.75;;;1.60;99.90;;;;;;5096337;28;20035;-50
2023/01/24 09:24:51;;;;;;;33.55;16.73;;;1.60;99.90;;;;;;5112489;28;20360;-52
2023/01/24 09:27:17;;;;;;;40.97;17.33;;;1.60;99.90;;;;;;5095084;28;20034;-50
2023/01/24 09:29:42;;;;;;;34.53;15.32;;;1.70;99.90;;;;;;5112375;28;20019;-54
2023/01/24 09:32:08;;;;;;;32.67;16.33;;;1.70;99.90;;;;;;5093395;28;20044;-56
2023/01/24 09:34:33;;;;;;;36.42;17.63;;;1.80;99.90;;;;;;5112141;28;20019;-55
2023/01/24 09:36:59;;;;;;;43.17;19.00;;;1.70;99.90;;;;;;5092201;28;20728;-54
2023/01/24 09:39:24;;;;;;;40.53;17.00;;;1.70;99.90;;;;;;5112188;28;20099;-54
2023/01/24 09:42:02;;;;;;;33.72;16.48;;;1.80;99.90;;;;;;5091016;28;20107;-56
2023/01/24 09:44:56;;;;;;;34.58;16.65;;;1.80;99.90;;;;;;5112110;28;20052;-53
2023/01/24 09:47:26;;;;;;;31.92;16.90;;;1.90;99.90;;;;;;5079825;28;20028;-52
2023/01/24 09:50:01;;;;;;;35.47;17.30;;;2.00;99.90;;;;;;5111950;28;20479;-54
2023/01/24 09:52:48;;;;;;;26.23;12.60;;;2.00;99.90;;;;;;5081101;28;20042;-53
2023/01/24 09:55:22;;;;;;;36.08;17.42;;;2.20;99.90;;;;;;5111921;28;20380;-51
2023/01/24 09:57:52;;;;;;;32.65;16.45;;;2.20;99.90;;;;;;5087103;28;20113;-59
2023/01/24 10:00:35;;;;;;;38.35;18.25;;;2.20;99.90;;;;;;5071387;28;20028;-67
2023/01/24 10:03:01;;;;;;;36.63;17.33;;;2.10;99.60;;;;;;5090329;28;20024;-66
2023/01/24 10:05:40;;;;;;;33.03;16.67;;;2.10;99.90;;;;;;5095539;28;20027;-67
2023/01/24 10:08:15;;;;;;;35.00;16.98;;;2.20;99.90;;;;;;5091913;28;20407;-67
2023/01/24 10:10:49;;;;;;;37.58;17.70;;;2.20;99.90;;;;;;5070218;28;20029;-67
2023/01/24 10:13:25;;;;;;;35.08;16.25;;;2.20;99.90;;;;;;5081681;28;20047;-67
2023/01/24 10:16:09;;;;;;;;;;;2.30;99.90;;;;;;5071352;28;20115;-66
2023/01/24 10:18:52;;;;;;;35.97;16.02;;;2.40;99.90;;;;;;5092451;28;19908;-66
2023/01/24 10:21:46;;;;;;;30.08;14.75;;;2.50;99.90;;;;;;5070866;28;20536;-67
2023/01/24 10:24:17;;;;;;;29.58;15.18;;;2.60;99.90;;;;;;5070698;28;20056;-66
2023/01/24 10:26:48;;;;;;;36.22;17.65;;;2.70;99.90;;;;;;5070776;28;20028;-66
2023/01/24 10:29:18;;;;;;;34.75;17.13;;;2.80;99.00;;;;;;5070596;28;20036;-66
2023/01/24 10:32:00;;;;;;;44.42;19.98;;;2.70;97.50;;;;;;5110695;28;20046;-67
2023/01/24 10:34:41;;;;;;;40.10;17.60;;;2.70;97.60;;;;;;5111101;28;20047;-66
2023/01/24 10:37:20;;;;;;;49.30;18.95;;;2.70;98.60;;;;;;5074532;28;20035;-66
2023/01/24 10:39:46;;;;;;;46.38;20.38;;;2.70;99.90;;;;;;5111127;28;20225;-67
2023/01/24 10:42:18;;;;;;;41.15;19.75;;;2.70;99.90;;;;;;5092662;28;20032;-66
2023/01/24 10:44:43;;;;;;;40.30;20.42;;;2.60;99.60;;;;;;5110859;28;20035;-66
2023/01/24 10:47:37;;;;;;;44.97;21.83;;;2.60;99.60;;;;;;5092362;28;20016;-67
2023/01/24 10:50:08;;;;;;;44.97;21.85;;;2.40;99.90;;;;;;5110619;28;20024;-67
2023/01/24 10:52:34;;;;;;;38.15;18.67;;;2.30;99.90;;;;;;5081891;28;20487;-67
2023/01/24 10:55:02;;;;;;;36.78;19.15;;;2.40;99.90;;;;;;5110662;28;20030;-66
2023/01/24 10:57:42;;;;;;;41.97;21.17;;;2.50;99.90;;;;;;5094349;27;20032;-67
2023/01/24 11:00:33;;;;;;;44.85;21.25;;;2.50;99.90;;;;;;5109109;28;20031;-67
2023/01/24 11:03:02;;;;;;;37.17;19.33;;;2.50;99.90;;;;;;5098674;28;20107;-66
2023/01/24 11:05:38;;;;;;;39.03;20.27;;;2.40;99.90;;;;;;5095370;28;20032;-67
2023/01/24 11:08:04;;;;;;;42.03;20.75;;;2.50;99.90;;;;;;5089804;28;20085;-66
2023/01/24 11:10:37;;;;;;;36.33;18.73;;;2.50;99.90;;;;;;5090466;28;20032;-66
2023/01/24 11:13:25;;;;;;;41.85;20.73;;;2.50;99.90;;;;;;5107719;28;20031;-66
2023/01/24 11:15:54;;;;;;;40.25;18.95;;;2.50;99.90;;;;;;5068476;28;20116;-66
2023/01/24 11:18:24;;;;;;;36.50;19.02;;;2.50;99.90;;;;;;5094913;28;20024;-66
2023/01/24 11:21:08;;;;;;;41.10;20.38;;;2.50;99.90;;;;;;5109955;28;20578;-66
2023/01/24 11:23:34;;;;;;;39.25;18.90;;;2.60;99.90;;;;;;5083010;28;20483;-66
2023/01/24 11:26:02;;;;;;;45.00;21.10;;;2.60;99.90;;;;;;5109302;28;20035;-66
2023/01/24 11:28:29;;;;;;;47.05;21.85;;;2.50;99.90;;;;;;5088065;28;20053;-67
2023/01/24 11:30:58;;;;;;;38.55;18.73;;;2.50;99.90;;;;;;5098478;28;20077;-67
2023/01/24 11:33:58;;;;;;;36.15;18.85;;;2.50;99.90;;;;;;5109542;28;20084;-67
2023/01/24 11:36:32;;;;;;;38.15;19.10;;;2.60;99.90;;;;;;5082008;28;20027;-66
2023/01/24 11:39:07;;;;;;;45.00;21.70;;;2.50;99.90;;;;;;5089820;28;20491;-66
2023/01/24 11:41:47;;;;;;;43.65;21.77;;;2.50;99.90;;;;;;5084517;28;20427;-67
2023/01/24 11:44:32;;;;;;;42.30;22.80;;;2.50;99.90;;;;;;5069580;28;20067;-67
2023/01/24 11:47:07;;;;;;;39.95;20.75;;;2.50;99.90;;;;;;5091313;28;20028;-66
2023/01/24 11:49:40;;;;;;;41.10;20.50;;;2.40;99.90;;;;;;5069457;28;20649;-66
2023/01/24 11:52:31;;;;;;;38.17;19.00;;;2.40;99.90;;;;;;5080551;28;20294;-66
2023/01/24 11:55:34;;;;;;;44.17;21.13;;;2.50;99.90;;;;;;5108908;28;20043;-67
2023/01/24 11:58:08;;;;;;;43.58;19.88;;;2.60;99.90;;;;;;5109793;28;20028;-66
2023/01/24 12:00:54;;;;;;;36.13;18.45;;;2.60;99.90;;;;;;5067771;28;20029;-66
2023/01/24 12:03:37;;;;;;;39.45;20.15;;;2.70;99.90;;;;;;5109782;28;20028;-67
2023/01/24 12:06:27;;;;;;;44.72;22.55;;;2.60;99.90;;;;;;5075522;28;20098;-67
2023/01/24 12:09:17;;;;;;;47.08;22.50;;;2.50;99.90;;;;;;5109713;28;20065;-66
2023/01/24 12:11:56;;;;;;;48.20;22.30;;;2.50;99.90;;;;;;5087118;28;20491;-67
2023/01/24 12:14:37;;;;;;;46.33;21.70;;;2.40;99.90;;;;;;5069214;28;20051;-67
2023/01/24 12:17:12;;;;;;;46.20;22.38;;;2.40;99.90;;;;;;5092401;28;20019;-69
2023/01/24 12:20:19;;;;;;;26.20;13.33;;;2.40;99.90;;;;;;5069083;28;20017;-67
2023/01/24 12:22:45;;;;;;;37.45;17.45;;;2.50;99.90;;;;;;5056441;28;20035;-67
2023/01/24 12:25:23;;;;;;;36.10;17.55;;;2.60;99.90;;;;;;5089556;28;20032;-67
2023/01/24 12:27:52;;;;;;;40.00;18.65;;;2.60;99.90;;;;;;5086079;28;20028;-66
2023/01/24 12:30:47;;;;;;;46.70;21.10;;;2.70;99.90;;;;;;5092088;28;20020;-67
2023/01/24 12:33:33;;;;;;;44.45;20.88;;;2.70;99.90;;;;;;5067520;28;20064;-67
2023/01/24 12:36:13;;;;;;;;;;;2.70;99.90;;;;;;5110710;28;20020;-67
2023/01/24 12:38:41;;;;;;;42.50;20.35;;;2.70;99.90;;;;;;5113577;28;19910;-67
2023/01/24 12:41:19;;;;;;;39.33;18.85;;;2.70;99.90;;;;;;5096025;28;20040;-67
2023/01/24 12:44:03;;;;;;;43.78;18.60;;;2.70;99.90;;;;;;5113551;28;20658;-67
2023/01/24 12:46:41;;;;;;;40.42;19.67;;;2.70;99.90;;;;;;5086951;28;20038;-67
2023/01/24 12:49:30;;;;;;;41.45;17.65;;;2.80;99.90;;;;;;5082550;28;20104;-67
2023/01/24 12:52:06;;;;;;;48.97;20.77;;;2.80;99.90;;;;;;5090357;28;20034;-66
2023/01/24 12:54:42;;;;;;;42.33;18.75;;;2.80;99.90;;;;;;5070255;28;20025;-67
2023/01/24 12:57:26;;;;;;;43.25;20.48;;;2.80;99.90;;;;;;5084738;28;20081;-67
2023/01/24 12:59:52;;;;;;;49.90;20.60;;;2.80;99.90;;;;;;5110311;28;20032;-67
2023/01/24 13:02:46;;;;;;;48.80;21.73;;;2.70;99.90;;;;;;5090884;28;20568;-66
2023/01/24 13:05:28;;;;;;;47.45;22.58;;;2.70;99.90;;;;;;5094778;28;20373;-67
2023/01/24 13:08:03;;;;;;;42.30;20.63;;;2.70;99.90;;;;;;5080960;28;20091;-66
2023/01/24 13:10:37;;;;;;;43.53;21.58;;;2.70;99.90;;;;;;5109349;28;20022;-67
2023/01/24 13:13:05;;;;;;;45.90;22.55;;;2.70;99.90;;;;;;5087009;28;20122;-67
2023/01/24 13:16:05;;;;;;;45.17;20.48;;;2.70;99.90;;;;;;5086021;28;20040;-61
2023/01/24 13:19:12;;;;;;;46.63;18.98;;;2.80;99.90;;;;;;5077189;28;20030;-61
2023/01/24 13:22:09;;;;;;;46.72;22.02;;;2.70;99.90;;;;;;5070820;28;20028;-61
2023/01/24 13:24:48;;;;;;;46.53;20.60;;;2.70;99.90;;;;;;5084559;28;20533;-62
2023/01/24 13:27:36;;;;;;;44.97;19.95;;;2.70;99.90;;;;;;5112567;28;20028;-62
2023/01/24 13:30:20;;;;;;;45.20;20.58;;;2.70;99.90;;;;;;5090512;28;20023;-61
2023/01/24 13:32:47;;;;;;;43.50;19.50;;;2.60;99.90;;;;;;5092132;28;20020;-61
2023/01/24 13:35:18;;;;;;;44.15;20.30;;;2.60;99.90;;;;;;5097395;28;20123;-61